Time;durP1;ratioP1;P1;durP2;ratioP2;P2;SDS_P1;SDS_P2;PMS_P1;PMS_P2;Temp;Humidity;BMP_temperature;BMP_pressure;BME280_temperature;BME280_humidity;BME280_pressure;Samples;Min_cycle;Max_cycle;Signal;HPM_P1;HPM_P2
2024/02/21 01:22:06;;;;;;;7.700001;2.9;;;;;;;6.78;83.91602;96222.75;;;;
2024/02/21 01:23:06;;;;;;;7.700001;2.9;;;;;;;6.78;83.91602;96222.75;;;;
2024/02/21 01:24:07;;;;;;;7.700001;2.9;;;;;;;6.78;83.91602;96222.75;;;;
2024/02/21 01:25:07;;;;;;;7.700001;2.9;;;;;;;6.78;83.91602;96222.75;;;;
2024/02/21 01:26:08;;;;;;;7.700001;2.9;;;;;;;6.78;83.91602;96222.75;;;;
2024/02/21 01:27:09;;;;;;;7.700001;2.9;;;;;;;6.78;83.91602;96222.75;;;;
2024/02/21 01:28:10;;;;;;;7.700001;2.9;;;;;;;6.78;83.91602;96222.75;;;;
2024/02/21 01:29:10;;;;;;;7.700001;2.9;;;;;;;6.78;83.91602;96222.75;;;;
2024/02/21 01:30:10;;;;;;;7.700001;2.9;;;;;;;6.78;83.91602;96222.75;;;;
2024/02/21 01:31:12;;;;;;;7.700001;2.9;;;;;;;6.78;83.91602;96222.75;;;;
2024/02/21 01:32:13;;;;;;;7.700001;2.9;;;;;;;6.78;83.91602;96222.75;;;;
2024/02/21 01:33:13;;;;;;;4.05;2.6;;;;;;;6.89;83.52344;96208.84;;;;
2024/02/21 01:34:14;;;;;;;4.05;2.6;;;;;;;6.89;83.52344;96208.84;;;;
2024/02/21 01:35:14;;;;;;;4.05;2.6;;;;;;;6.89;83.52344;96208.84;;;;
2024/02/21 01:36:15;;;;;;;4.05;2.6;;;;;;;6.89;83.52344;96208.84;;;;
2024/02/21 01:37:15;;;;;;;4.05;2.6;;;;;;;6.89;83.52344;96208.84;;;;
2024/02/21 01:38:16;;;;;;;4.05;2.6;;;;;;;6.89;83.52344;96208.84;;;;
2024/02/21 01:39:16;;;;;;;4.05;2.6;;;;;;;6.89;83.52344;96208.84;;;;
2024/02/21 01:40:16;;;;;;;4.05;2.6;;;;;;;6.89;83.52344;96208.84;;;;
2024/02/21 01:41:17;;;;;;;4.05;2.6;;;;;;;6.89;83.52344;96208.84;;;;
2024/02/21 01:42:18;;;;;;;4.05;2.6;;;;;;;6.89;83.52344;96208.84;;;;
2024/02/21 01:43:18;;;;;;;4.05;2.6;;;;;;;6.89;83.52344;96208.84;;;;
2024/02/21 01:44:20;;;;;;;4.05;2.6;;;;;;;6.89;83.52344;96208.84;;;;
2024/02/21 01:45:21;;;;;;;4.05;2.6;;;;;;;6.89;83.52344;96208.84;;;;
2024/02/21 01:46:21;;;;;;;4.05;2.6;;;;;;;6.89;83.52344;96208.84;;;;
2024/02/21 01:47:22;;;;;;;4.05;2.6;;;;;;;6.89;83.52344;96208.84;;;;
2024/02/21 01:48:23;;;;;;;4.05;2.6;;;;;;;6.89;83.52344;96208.84;;;;
2024/02/21 01:49:25;;;;;;;4.05;2.6;;;;;;;6.89;83.52344;96208.84;;;;
2024/02/21 01:50:26;;;;;;;4.05;2.6;;;;;;;6.89;83.52344;96208.84;;;;
2024/02/21 01:51:28;;;;;;;4.05;2.6;;;;;;;6.89;83.52344;96208.84;;;;
2024/02/21 01:52:29;;;;;;;4.05;2.6;;;;;;;6.89;83.52344;96208.84;;;;
2024/02/21 01:53:30;;;;;;;4.05;2.6;;;;;;;6.89;83.52344;96208.84;;;;
2024/02/21 01:54:35;;;;;;;4.05;2.6;;;;;;;6.89;83.52344;96208.84;;;;
2024/02/21 01:55:36;;;;;;;4.05;2.6;;;;;;;6.89;83.52344;96208.84;;;;
2024/02/21 01:56:37;;;;;;;4.05;2.6;;;;;;;6.89;83.52344;96208.84;;;;
2024/02/21 01:57:38;;;;;;;4.05;2.6;;;;;;;6.89;83.52344;96208.84;;;;
2024/02/21 01:58:38;;;;;;;4.05;2.6;;;;;;;6.89;83.52344;96208.84;;;;
2024/02/21 01:59:42;;;;;;;4.05;2.6;;;;;;;6.89;83.52344;96208.84;;;;
2024/02/21 02:00:42;;;;;;;4.05;2.6;;;;;;;6.89;83.52344;96208.84;;;;
2024/02/21 02:01:44;;;;;;;4.05;2.6;;;;;;;6.89;83.52344;96208.84;;;;
2024/02/21 02:02:46;;;;;;;4.05;2.6;;;;;;;6.89;83.52344;96208.84;;;;
2024/02/21 02:03:47;;;;;;;4.05;2.6;;;;;;;6.89;83.52344;96208.84;;;;
2024/02/21 02:04:48;;;;;;;4.05;2.6;;;;;;;6.89;83.52344;96208.84;;;;
2024/02/21 02:05:49;;;;;;;4.05;2.6;;;;;;;6.89;83.52344;96208.84;;;;
2024/02/21 02:06:50;;;;;;;4.05;2.6;;;;;;;6.89;83.52344;96208.84;;;;
2024/02/21 02:07:51;;;;;;;4.05;2.6;;;;;;;6.89;83.52344;96208.84;;;;
2024/02/21 02:08:52;;;;;;;4.05;2.6;;;;;;;6.89;83.52344;96208.84;;;;
2024/02/21 02:09:53;;;;;;;4.05;2.6;;;;;;;6.89;83.52344;96208.84;;;;
2024/02/21 02:10:53;;;;;;;4.05;2.6;;;;;;;6.89;83.52344;96208.84;;;;
2024/02/21 02:11:54;;;;;;;4.05;2.6;;;;;;;6.89;83.52344;96208.84;;;;
2024/02/21 02:12:54;;;;;;;4.05;2.6;;;;;;;6.89;83.52344;96208.84;;;;
2024/02/21 02:13:55;;;;;;;4.05;2.6;;;;;;;6.89;83.52344;96208.84;;;;
2024/02/21 02:14:55;;;;;;;4.05;2.6;;;;;;;6.89;83.52344;96208.84;;;;
2024/02/21 02:15:58;;;;;;;4.05;2.6;;;;;;;6.89;83.52344;96208.84;;;;
2024/02/21 02:16:58;;;;;;;4.05;2.6;;;;;;;6.89;83.52344;96208.84;;;;
2024/02/21 03:00:01;;;;;;;2.35;1.9;;;;;;;7.18;83.71777;96106.2;;;;
2024/02/21 03:01:04;;;;;;;2.35;1.9;;;;;;;7.18;83.71777;96106.2;;;;
2024/02/21 03:02:07;;;;;;;2.35;1.9;;;;;;;7.18;83.71777;96106.2;;;;
2024/02/21 03:03:08;;;;;;;2.35;1.9;;;;;;;7.18;83.71777;96106.2;;;;
2024/02/21 03:04:09;;;;;;;2.35;1.9;;;;;;;7.18;83.71777;96106.2;;;;
2024/02/21 03:05:09;;;;;;;2.35;1.9;;;;;;;7.18;83.71777;96106.2;;;;
2024/02/21 03:06:13;;;;;;;2.35;1.9;;;;;;;7.18;83.71777;96106.2;;;;
2024/02/21 03:07:14;;;;;;;2.35;1.9;;;;;;;7.18;83.71777;96106.2;;;;
2024/02/21 03:08:15;;;;;;;2.35;1.9;;;;;;;7.18;83.71777;96106.2;;;;
2024/02/21 03:09:15;;;;;;;2.35;1.9;;;;;;;7.18;83.71777;96106.2;;;;
2024/02/21 03:10:16;;;;;;;2.35;1.9;;;;;;;7.18;83.71777;96106.2;;;;
2024/02/21 03:11:16;;;;;;;2.35;1.9;;;;;;;7.18;83.71777;96106.2;;;;
2024/02/21 03:12:24;;;;;;;2.35;1.9;;;;;;;7.18;83.71777;96106.2;;;;
2024/02/21 03:13:24;;;;;;;2.35;1.9;;;;;;;7.18;83.71777;96106.2;;;;
2024/02/21 03:14:25;;;;;;;2.35;1.9;;;;;;;7.18;83.71777;96106.2;;;;
2024/02/21 03:15:25;;;;;;;2.35;1.9;;;;;;;7.18;83.71777;96106.2;;;;
2024/02/21 03:16:26;;;;;;;2.35;1.9;;;;;;;7.18;83.71777;96106.2;;;;
2024/02/21 03:17:26;;;;;;;2.35;1.9;;;;;;;7.18;83.71777;96106.2;;;;
2024/02/21 03:18:27;;;;;;;2.35;1.9;;;;;;;7.18;83.71777;96106.2;;;;
2024/02/21 03:19:27;;;;;;;2.35;1.9;;;;;;;7.18;83.71777;96106.2;;;;
2024/02/21 03:20:28;;;;;;;2.35;1.9;;;;;;;7.18;83.71777;96106.2;;;;
2024/02/21 03:21:29;;;;;;;2.35;1.9;;;;;;;7.18;83.71777;96106.2;;;;
2024/02/21 03:22:29;;;;;;;2.35;1.9;;;;;;;7.18;83.71777;96106.2;;;;
2024/02/21 03:23:30;;;;;;;2.35;1.9;;;;;;;7.18;83.71777;96106.2;;;;
2024/02/21 03:24:31;;;;;;;2.35;1.9;;;;;;;7.18;83.71777;96106.2;;;;
2024/02/21 03:25:31;;;;;;;2.35;1.9;;;;;;;7.18;83.71777;96106.2;;;;
2024/02/21 03:26:32;;;;;;;2.35;1.9;;;;;;;7.18;83.71777;96106.2;;;;
2024/02/21 03:27:33;;;;;;;2.35;1.9;;;;;;;7.18;83.71777;96106.2;;;;
2024/02/21 03:28:33;;;;;;;2.35;1.9;;;;;;;7.18;83.71777;96106.2;;;;
2024/02/21 03:29:33;;;;;;;2.35;1.9;;;;;;;7.18;83.71777;96106.2;;;;
2024/02/21 03:30:34;;;;;;;2.35;1.9;;;;;;;7.18;83.71777;96106.2;;;;
2024/02/21 03:31:34;;;;;;;2.35;1.9;;;;;;;7.18;83.71777;96106.2;;;;
2024/02/21 03:32:35;;;;;;;2.35;1.9;;;;;;;7.18;83.71777;96106.2;;;;
2024/02/21 03:33:36;;;;;;;2.35;1.9;;;;;;;7.18;83.71777;96106.2;;;;
2024/02/21 03:34:36;;;;;;;2.35;1.9;;;;;;;7.18;83.71777;96106.2;;;;
2024/02/21 03:35:37;;;;;;;2.35;1.9;;;;;;;7.18;83.71777;96106.2;;;;
2024/02/21 03:36:38;;;;;;;2.35;1.9;;;;;;;7.18;83.71777;96106.2;;;;
2024/02/21 03:37:39;;;;;;;2.35;1.9;;;;;;;7.18;83.71777;96106.2;;;;
2024/02/21 03:38:39;;;;;;;2.35;1.9;;;;;;;7.18;83.71777;96106.2;;;;
2024/02/21 03:39:40;;;;;;;2.35;1.9;;;;;;;7.18;83.71777;96106.2;;;;
2024/02/21 03:40:41;;;;;;;2.35;1.9;;;;;;;7.18;83.71777;96106.2;;;;
2024/02/21 03:41:41;;;;;;;2.35;1.9;;;;;;;7.18;83.71777;96106.2;;;;
2024/02/21 03:42:42;;;;;;;2.35;1.9;;;;;;;7.18;83.71777;96106.2;;;;
2024/02/21 03:43:42;;;;;;;2.35;1.9;;;;;;;7.18;83.71777;96106.2;;;;
2024/02/21 03:53:43;;;;;;;2.65;1.85;;;;;;;7.18;84.08789;96088.28;;;;
2024/02/21 03:54:44;;;;;;;2.65;1.85;;;;;;;7.18;84.08789;96088.28;;;;
2024/02/21 03:55:44;;;;;;;2.65;1.85;;;;;;;7.18;84.08789;96088.28;;;;
2024/02/21 03:56:47;;;;;;;2.65;1.85;;;;;;;7.18;84.08789;96088.28;;;;
2024/02/21 03:57:47;;;;;;;2.65;1.85;;;;;;;7.18;84.08789;96088.28;;;;
2024/02/21 03:58:48;;;;;;;2.65;1.85;;;;;;;7.18;84.08789;96088.28;;;;
2024/02/21 03:59:49;;;;;;;2.65;1.85;;;;;;;7.18;84.08789;96088.28;;;;
2024/02/21 04:00:51;;;;;;;2.65;1.85;;;;;;;7.18;84.08789;96088.28;;;;
2024/02/21 04:01:52;;;;;;;2.65;1.85;;;;;;;7.18;84.08789;96088.28;;;;
2024/02/21 04:02:53;;;;;;;2.65;1.85;;;;;;;7.18;84.08789;96088.28;;;;
2024/02/21 04:03:53;;;;;;;2.65;1.85;;;;;;;7.18;84.08789;96088.28;;;;
2024/02/21 04:04:54;;;;;;;2.65;1.85;;;;;;;7.18;84.08789;96088.28;;;;
2024/02/21 04:05:54;;;;;;;2.65;1.85;;;;;;;7.18;84.08789;96088.28;;;;
2024/02/21 04:06:55;;;;;;;2.65;1.85;;;;;;;7.18;84.08789;96088.28;;;;
2024/02/21 04:07:55;;;;;;;2.65;1.85;;;;;;;7.18;84.08789;96088.28;;;;
2024/02/21 04:08:56;;;;;;;2.65;1.85;;;;;;;7.18;84.08789;96088.28;;;;
2024/02/21 04:09:57;;;;;;;2.65;1.85;;;;;;;7.18;84.08789;96088.28;;;;
2024/02/21 04:10:57;;;;;;;2.65;1.85;;;;;;;7.18;84.08789;96088.28;;;;
2024/02/21 04:11:58;;;;;;;2.65;1.85;;;;;;;7.18;84.08789;96088.28;;;;
2024/02/21 04:12:58;;;;;;;2.65;1.85;;;;;;;7.18;84.08789;96088.28;;;;
2024/02/21 04:13:58;;;;;;;2.65;1.85;;;;;;;7.18;84.08789;96088.28;;;;
2024/02/21 04:14:59;;;;;;;2.65;1.6;;;;;;;7.04;84.58301;96082.82;;;;
2024/02/21 04:16:01;;;;;;;2.65;1.6;;;;;;;7.04;84.58301;96082.82;;;;
2024/02/21 04:17:01;;;;;;;2.65;1.6;;;;;;;7.04;84.58301;96082.82;;;;
2024/02/21 04:18:02;;;;;;;2.65;1.6;;;;;;;7.04;84.58301;96082.82;;;;
2024/02/21 04:19:03;;;;;;;2.65;1.6;;;;;;;7.04;84.58301;96082.82;;;;
2024/02/21 04:20:05;;;;;;;2.65;1.6;;;;;;;7.04;84.58301;96082.82;;;;
2024/02/21 04:21:06;;;;;;;2.65;1.6;;;;;;;7.04;84.58301;96082.82;;;;
2024/02/21 04:22:06;;;;;;;2.65;1.6;;;;;;;7.04;84.58301;96082.82;;;;
2024/02/21 04:23:06;;;;;;;2.65;1.6;;;;;;;7.04;84.58301;96082.82;;;;
2024/02/21 04:24:07;;;;;;;2.65;1.6;;;;;;;7.04;84.58301;96082.82;;;;
2024/02/21 04:25:07;;;;;;;2.65;1.6;;;;;;;7.04;84.58301;96082.82;;;;
2024/02/21 04:26:08;;;;;;;2.65;1.6;;;;;;;7.04;84.58301;96082.82;;;;
2024/02/21 04:27:09;;;;;;;2.65;1.6;;;;;;;7.04;84.58301;96082.82;;;;
2024/02/21 04:28:09;;;;;;;2.65;1.6;;;;;;;7.04;84.58301;96082.82;;;;
2024/02/21 04:29:10;;;;;;;2.65;1.6;;;;;;;7.04;84.58301;96082.82;;;;
2024/02/21 04:30:11;;;;;;;2.65;1.6;;;;;;;7.04;84.58301;96082.82;;;;
2024/02/21 04:31:12;;;;;;;2.65;1.6;;;;;;;7.04;84.58301;96082.82;;;;
2024/02/21 04:32:12;;;;;;;2.65;1.6;;;;;;;7.04;84.58301;96082.82;;;;
2024/02/21 04:33:13;;;;;;;2.65;1.6;;;;;;;7.04;84.58301;96082.82;;;;
2024/02/21 04:34:13;;;;;;;2.65;1.6;;;;;;;7.04;84.58301;96082.82;;;;
2024/02/21 04:35:14;;;;;;;2.65;1.6;;;;;;;7.04;84.58301;96082.82;;;;
2024/02/21 04:36:14;;;;;;;2.65;1.6;;;;;;;7.04;84.58301;96082.82;;;;
2024/02/21 04:37:15;;;;;;;2.65;1.6;;;;;;;7.04;84.58301;96082.82;;;;
2024/02/21 04:38:16;;;;;;;2.65;1.6;;;;;;;7.04;84.58301;96082.82;;;;
2024/02/21 04:39:16;;;;;;;2.65;1.6;;;;;;;7.04;84.58301;96082.82;;;;
2024/02/21 04:40:16;;;;;;;2.65;1.6;;;;;;;7.04;84.58301;96082.82;;;;
2024/02/21 04:41:17;;;;;;;2.65;1.6;;;;;;;7.04;84.58301;96082.82;;;;
2024/02/21 04:42:18;;;;;;;2.65;1.6;;;;;;;7.04;84.58301;96082.82;;;;
2024/02/21 04:43:18;;;;;;;2.65;1.6;;;;;;;7.04;84.58301;96082.82;;;;
2024/02/21 04:44:22;;;;;;;2.65;1.6;;;;;;;7.04;84.58301;96082.82;;;;
2024/02/21 04:45:22;;;;;;;2.65;1.6;;;;;;;7.04;84.58301;96082.82;;;;
2024/02/21 04:46:23;;;;;;;2.65;1.6;;;;;;;7.04;84.58301;96082.82;;;;
2024/02/21 04:47:23;;;;;;;2.65;1.6;;;;;;;7.04;84.58301;96082.82;;;;
2024/02/21 04:48:24;;;;;;;2.65;1.6;;;;;;;7.04;84.58301;96082.82;;;;
2024/02/21 04:49:24;;;;;;;2.65;1.6;;;;;;;7.04;84.58301;96082.82;;;;
2024/02/21 04:50:25;;;;;;;2.65;1.6;;;;;;;7.04;84.58301;96082.82;;;;
2024/02/21 04:51:25;;;;;;;2.65;1.6;;;;;;;7.04;84.58301;96082.82;;;;
2024/02/21 04:52:25;;;;;;;2.65;1.6;;;;;;;7.04;84.58301;96082.82;;;;
2024/02/21 04:53:26;;;;;;;2.65;1.6;;;;;;;7.04;84.58301;96082.82;;;;
2024/02/21 04:54:26;;;;;;;2.65;1.6;;;;;;;7.04;84.58301;96082.82;;;;
2024/02/21 04:55:27;;;;;;;2.65;1.6;;;;;;;7.04;84.58301;96082.82;;;;
2024/02/21 04:56:27;;;;;;;2.65;1.6;;;;;;;7.04;84.58301;96082.82;;;;
2024/02/21 04:57:28;;;;;;;2.65;1.6;;;;;;;7.04;84.58301;96082.82;;;;
2024/02/21 04:58:28;;;;;;;2.65;1.6;;;;;;;7.04;84.58301;96082.82;;;;
2024/02/21 04:59:29;;;;;;;2.65;1.6;;;;;;;7.04;84.58301;96082.82;;;;
2024/02/21 06:46:35;;;;;;;2.3;1.8;;;;;;;5.76;84.33398;95946.11;;;;
2024/02/21 06:47:36;;;;;;;2.3;1.8;;;;;;;5.76;84.33398;95946.11;;;;
2024/02/21 06:48:37;;;;;;;2.3;1.8;;;;;;;5.76;84.33398;95946.11;;;;
2024/02/21 06:49:37;;;;;;;2.3;1.8;;;;;;;5.76;84.33398;95946.11;;;;
2024/02/21 06:50:38;;;;;;;2.3;1.8;;;;;;;5.76;84.33398;95946.11;;;;
2024/02/21 06:51:38;;;;;;;2.3;1.8;;;;;;;5.76;84.33398;95946.11;;;;
2024/02/21 06:52:38;;;;;;;2.3;1.8;;;;;;;5.76;84.33398;95946.11;;;;
2024/02/21 06:53:40;;;;;;;2.3;1.8;;;;;;;5.76;84.33398;95946.11;;;;
2024/02/21 06:54:40;;;;;;;2.3;1.8;;;;;;;5.76;84.33398;95946.11;;;;
2024/02/21 06:55:41;;;;;;;2.3;1.8;;;;;;;5.76;84.33398;95946.11;;;;
2024/02/21 06:56:41;;;;;;;2.3;1.8;;;;;;;5.76;84.33398;95946.11;;;;
2024/02/21 06:57:42;;;;;;;2.3;1.8;;;;;;;5.76;84.33398;95946.11;;;;
2024/02/21 06:58:42;;;;;;;2.3;1.8;;;;;;;5.76;84.33398;95946.11;;;;
2024/02/21 06:59:43;;;;;;;2.3;1.8;;;;;;;5.76;84.33398;95946.11;;;;
2024/02/21 07:00:44;;;;;;;2.3;1.8;;;;;;;5.76;84.33398;95946.11;;;;
2024/02/21 07:01:44;;;;;;;2.3;1.8;;;;;;;5.76;84.33398;95946.11;;;;
2024/02/21 07:02:46;;;;;;;2.3;1.8;;;;;;;5.76;84.33398;95946.11;;;;
2024/02/21 07:03:47;;;;;;;2.3;1.8;;;;;;;5.76;84.33398;95946.11;;;;
2024/02/21 07:04:48;;;;;;;2.3;1.8;;;;;;;5.76;84.33398;95946.11;;;;
2024/02/21 07:05:48;;;;;;;2.3;1.8;;;;;;;5.76;84.33398;95946.11;;;;
2024/02/21 07:06:49;;;;;;;2.3;1.8;;;;;;;5.76;84.33398;95946.11;;;;
2024/02/21 07:07:49;;;;;;;2.3;1.8;;;;;;;5.76;84.33398;95946.11;;;;
2024/02/21 07:08:50;;;;;;;2.3;1.8;;;;;;;5.76;84.33398;95946.11;;;;
2024/02/21 07:09:51;;;;;;;2.3;1.8;;;;;;;5.76;84.33398;95946.11;;;;
2024/02/21 07:10:51;;;;;;;2.3;1.8;;;;;;;5.76;84.33398;95946.11;;;;
2024/02/21 07:11:52;;;;;;;2.3;1.8;;;;;;;5.76;84.33398;95946.11;;;;
2024/02/21 07:12:52;;;;;;;2.3;1.8;;;;;;;5.76;84.33398;95946.11;;;;
2024/02/21 07:13:53;;;;;;;2.3;1.8;;;;;;;5.76;84.33398;95946.11;;;;
2024/02/21 07:14:53;;;;;;;2.3;1.8;;;;;;;5.76;84.33398;95946.11;;;;
2024/02/21 07:15:54;;;;;;;2.3;1.8;;;;;;;5.76;84.33398;95946.11;;;;
2024/02/21 07:16:54;;;;;;;2.3;1.8;;;;;;;5.76;84.33398;95946.11;;;;
2024/02/21 07:17:55;;;;;;;2.3;1.8;;;;;;;5.76;84.33398;95946.11;;;;
2024/02/21 07:18:55;;;;;;;2.3;1.8;;;;;;;5.76;84.33398;95946.11;;;;
2024/02/21 07:19:56;;;;;;;2.3;1.8;;;;;;;5.76;84.33398;95946.11;;;;
2024/02/21 07:20:58;;;;;;;2.3;1.8;;;;;;;5.76;84.33398;95946.11;;;;
2024/02/21 07:21:58;;;;;;;2.3;1.8;;;;;;;5.76;84.33398;95946.11;;;;
2024/02/21 07:22:59;;;;;;;2.3;1.8;;;;;;;5.76;84.33398;95946.11;;;;
2024/02/21 07:23:59;;;;;;;2.3;1.8;;;;;;;5.76;84.33398;95946.11;;;;
2024/02/21 07:25:00;;;;;;;2.3;1.8;;;;;;;5.76;84.33398;95946.11;;;;
2024/02/21 07:26:00;;;;;;;2.3;1.8;;;;;;;5.76;84.33398;95946.11;;;;
2024/02/21 07:27:04;;;;;;;2.3;1.8;;;;;;;5.76;84.33398;95946.11;;;;
2024/02/21 07:28:04;;;;;;;2.3;1.8;;;;;;;5.76;84.33398;95946.11;;;;
2024/02/21 07:29:05;;;;;;;2.3;1.8;;;;;;;5.76;84.33398;95946.11;;;;
2024/02/21 07:30:05;;;;;;;2.65;1.6;;;;;;;6.93;85.13672;95923.32;;;;
2024/02/21 07:31:07;;;;;;;2.65;1.6;;;;;;;6.93;85.13672;95923.32;;;;
2024/02/21 07:32:07;;;;;;;2.65;1.6;;;;;;;6.93;85.13672;95923.32;;;;
2024/02/21 07:33:08;;;;;;;2.65;1.6;;;;;;;6.93;85.13672;95923.32;;;;
2024/02/21 07:34:08;;;;;;;2.65;1.6;;;;;;;6.93;85.13672;95923.32;;;;
2024/02/21 07:35:11;;;;;;;2.65;1.6;;;;;;;6.93;85.13672;95923.32;;;;
2024/02/21 07:36:12;;;;;;;2.65;1.6;;;;;;;6.93;85.13672;95923.32;;;;
2024/02/21 07:37:12;;;;;;;2.65;1.6;;;;;;;6.93;85.13672;95923.32;;;;
2024/02/21 07:38:14;;;;;;;2.65;1.6;;;;;;;6.93;85.13672;95923.32;;;;
2024/02/21 07:39:15;;;;;;;2.65;1.6;;;;;;;6.93;85.13672;95923.32;;;;
2024/02/21 07:40:15;;;;;;;2.65;1.6;;;;;;;6.93;85.13672;95923.32;;;;
2024/02/21 07:41:16;;;;;;;2.65;1.6;;;;;;;6.93;85.13672;95923.32;;;;
2024/02/21 07:42:17;;;;;;;2.65;1.6;;;;;;;6.93;85.13672;95923.32;;;;
2024/02/21 07:43:17;;;;;;;2.65;1.6;;;;;;;6.93;85.13672;95923.32;;;;
2024/02/21 07:44:17;;;;;;;2.65;1.6;;;;;;;6.93;85.13672;95923.32;;;;
2024/02/21 07:45:18;;;;;;;2.65;1.6;;;;;;;6.93;85.13672;95923.32;;;;
2024/02/21 07:46:18;;;;;;;2.65;1.6;;;;;;;6.93;85.13672;95923.32;;;;
2024/02/21 07:47:19;;;;;;;2.65;1.6;;;;;;;6.93;85.13672;95923.32;;;;
2024/02/21 07:48:20;;;;;;;2.65;1.6;;;;;;;6.93;85.13672;95923.32;;;;
2024/02/21 07:49:21;;;;;;;2.65;1.6;;;;;;;6.93;85.13672;95923.32;;;;
2024/02/21 07:50:22;;;;;;;2.65;1.6;;;;;;;6.93;85.13672;95923.32;;;;
2024/02/21 07:51:22;;;;;;;2.65;1.6;;;;;;;6.93;85.13672;95923.32;;;;
2024/02/21 07:52:27;;;;;;;2.65;1.6;;;;;;;6.93;85.13672;95923.32;;;;
2024/02/21 07:53:28;;;;;;;2.65;1.6;;;;;;;6.93;85.13672;95923.32;;;;
2024/02/21 07:54:28;;;;;;;2.65;1.6;;;;;;;6.93;85.13672;95923.32;;;;
2024/02/21 07:55:29;;;;;;;2.65;1.6;;;;;;;6.93;85.13672;95923.32;;;;
2024/02/21 07:56:29;;;;;;;2.65;1.6;;;;;;;6.93;85.13672;95923.32;;;;
2024/02/21 07:57:30;;;;;;;2.65;1.6;;;;;;;6.93;85.13672;95923.32;;;;
2024/02/21 07:58:30;;;;;;;2.65;1.6;;;;;;;6.93;85.13672;95923.32;;;;
2024/02/21 07:59:31;;;;;;;2.65;1.6;;;;;;;6.93;85.13672;95923.32;;;;
2024/02/21 08:00:31;;;;;;;2.65;1.6;;;;;;;6.93;85.13672;95923.32;;;;
2024/02/21 08:01:32;;;;;;;2.65;1.6;;;;;;;6.93;85.13672;95923.32;;;;
2024/02/21 08:02:32;;;;;;;2.65;1.6;;;;;;;6.93;85.13672;95923.32;;;;
2024/02/21 08:03:33;;;;;;;2.65;1.6;;;;;;;6.93;85.13672;95923.32;;;;
2024/02/21 08:04:33;;;;;;;2.65;1.6;;;;;;;6.93;85.13672;95923.32;;;;
2024/02/21 08:05:34;;;;;;;2.65;1.6;;;;;;;6.93;85.13672;95923.32;;;;
2024/02/21 08:06:34;;;;;;;2.65;1.6;;;;;;;6.93;85.13672;95923.32;;;;
2024/02/21 08:07:35;;;;;;;2.65;1.6;;;;;;;6.93;85.13672;95923.32;;;;
2024/02/21 08:08:35;;;;;;;2.65;1.6;;;;;;;6.93;85.13672;95923.32;;;;
2024/02/21 08:09:37;;;;;;;2.65;1.6;;;;;;;6.93;85.13672;95923.32;;;;
2024/02/21 08:10:40;;;;;;;2.65;1.6;;;;;;;6.93;85.13672;95923.32;;;;
2024/02/21 08:11:40;;;;;;;2.65;1.6;;;;;;;6.93;85.13672;95923.32;;;;
2024/02/21 08:12:41;;;;;;;2.65;1.6;;;;;;;6.93;85.13672;95923.32;;;;
2024/02/21 08:13:41;;;;;;;2.65;1.6;;;;;;;6.93;85.13672;95923.32;;;;
2024/02/21 11:49:53;;;;;;;1.3;1.2;;;;;;;23.95;70.41895;95577.11;;;;
2024/02/21 11:50:54;;;;;;;1.3;1.2;;;;;;;23.95;70.41895;95577.11;;;;
2024/02/21 11:51:55;;;;;;;1.3;1.2;;;;;;;23.95;70.41895;95577.11;;;;
2024/02/21 11:52:59;;;;;;;1.3;1.2;;;;;;;23.95;70.41895;95577.11;;;;
2024/02/21 11:54:00;;;;;;;1.3;1.2;;;;;;;23.95;70.41895;95577.11;;;;
2024/02/21 11:55:04;;;;;;;1.3;1.2;;;;;;;23.95;70.41895;95577.11;;;;
2024/02/21 11:56:06;;;;;;;1.3;1.2;;;;;;;23.95;70.41895;95577.11;;;;
2024/02/21 11:57:07;;;;;;;1.3;1.2;;;;;;;23.95;70.41895;95577.11;;;;
2024/02/21 11:58:07;;;;;;;1.3;1.2;;;;;;;23.95;70.41895;95577.11;;;;
2024/02/21 11:59:08;;;;;;;1.3;1.2;;;;;;;23.95;70.41895;95577.11;;;;
2024/02/21 12:00:08;;;;;;;1.3;1.2;;;;;;;23.95;70.41895;95577.11;;;;
2024/02/21 12:01:13;;;;;;;1.3;1.2;;;;;;;23.95;70.41895;95577.11;;;;
2024/02/21 12:02:13;;;;;;;1.3;1.2;;;;;;;23.95;70.41895;95577.11;;;;
2024/02/21 12:03:14;;;;;;;1.3;1.2;;;;;;;23.95;70.41895;95577.11;;;;
2024/02/21 12:04:16;;;;;;;1.3;1.2;;;;;;;23.95;70.41895;95577.11;;;;
2024/02/21 12:05:18;;;;;;;1.3;1.2;;;;;;;23.95;70.41895;95577.11;;;;
2024/02/21 12:06:21;;;;;;;1.3;1.2;;;;;;;23.95;70.41895;95577.11;;;;
2024/02/21 12:07:23;;;;;;;1.3;1.2;;;;;;;23.95;70.41895;95577.11;;;;
2024/02/21 12:08:23;;;;;;;1.3;1.2;;;;;;;23.95;70.41895;95577.11;;;;
2024/02/21 12:09:24;;;;;;;1.3;1.2;;;;;;;23.95;70.41895;95577.11;;;;
2024/02/21 12:10:26;;;;;;;1.3;1.2;;;;;;;23.95;70.41895;95577.11;;;;
2024/02/21 12:11:27;;;;;;;1.3;1.2;;;;;;;23.95;70.41895;95577.11;;;;
2024/02/21 12:12:28;;;;;;;1.3;1.2;;;;;;;23.95;70.41895;95577.11;;;;
2024/02/21 12:13:29;;;;;;;1.3;1.2;;;;;;;23.95;70.41895;95577.11;;;;
2024/02/21 12:14:29;;;;;;;1.3;1.2;;;;;;;23.95;70.41895;95577.11;;;;
2024/02/21 12:15:31;;;;;;;1.3;1.2;;;;;;;23.95;70.41895;95577.11;;;;
2024/02/21 12:16:32;;;;;;;1.3;1.2;;;;;;;23.95;70.41895;95577.11;;;;
2024/02/21 12:17:33;;;;;;;1.3;1.2;;;;;;;23.95;70.41895;95577.11;;;;
2024/02/21 12:18:34;;;;;;;1.3;1.2;;;;;;;23.95;70.41895;95577.11;;;;
2024/02/21 12:19:35;;;;;;;1.3;1.2;;;;;;;23.95;70.41895;95577.11;;;;
2024/02/21 12:20:36;;;;;;;1.3;1.2;;;;;;;23.95;70.41895;95577.11;;;;
2024/02/21 12:21:36;;;;;;;1.3;1.2;;;;;;;23.95;70.41895;95577.11;;;;
2024/02/21 12:22:37;;;;;;;1.3;1.2;;;;;;;23.95;70.41895;95577.11;;;;
2024/02/21 12:23:39;;;;;;;1.3;1.2;;;;;;;23.95;70.41895;95577.11;;;;
2024/02/21 12:24:46;;;;;;;1.3;1.2;;;;;;;23.95;70.41895;95577.11;;;;
2024/02/21 12:25:47;;;;;;;1.3;1.2;;;;;;;23.95;70.41895;95577.11;;;;
2024/02/21 12:26:48;;;;;;;1.3;1.2;;;;;;;23.95;70.41895;95577.11;;;;
2024/02/21 12:27:49;;;;;;;1.3;1.2;;;;;;;23.95;70.41895;95577.11;;;;
2024/02/21 12:28:49;;;;;;;1.3;1.2;;;;;;;23.95;70.41895;95577.11;;;;
2024/02/21 12:29:50;;;;;;;1.3;1.2;;;;;;;23.95;70.41895;95577.11;;;;
2024/02/21 12:30:50;;;;;;;1.3;1.2;;;;;;;23.95;70.41895;95577.11;;;;
2024/02/21 12:31:51;;;;;;;1.3;1.2;;;;;;;23.95;70.41895;95577.11;;;;
2024/02/21 12:32:52;;;;;;;1.3;1.2;;;;;;;23.95;70.41895;95577.11;;;;
2024/02/21 12:33:53;;;;;;;1.3;1.2;;;;;;;23.95;70.41895;95577.11;;;;
2024/02/21 13:58:59;;;;;;;1.5;1.4;;;;;;;26.87;66.40137;95328.14;;;;
2024/02/21 14:00:00;;;;;;;1.5;1.4;;;;;;;26.87;66.40137;95328.14;;;;
2024/02/21 14:01:01;;;;;;;1.5;1.4;;;;;;;26.87;66.40137;95328.14;;;;
2024/02/21 14:02:01;;;;;;;1.5;1.4;;;;;;;26.87;66.40137;95328.14;;;;
2024/02/21 14:03:02;;;;;;;1.5;1.4;;;;;;;26.87;66.40137;95328.14;;;;
2024/02/21 14:04:04;;;;;;;1.5;1.4;;;;;;;26.87;66.40137;95328.14;;;;
2024/02/21 14:05:05;;;;;;;1.5;1.4;;;;;;;26.87;66.40137;95328.14;;;;
2024/02/21 14:06:07;;;;;;;1.5;1.4;;;;;;;26.87;66.40137;95328.14;;;;
2024/02/21 14:07:07;;;;;;;1.5;1.4;;;;;;;26.87;66.40137;95328.14;;;;
2024/02/21 14:08:08;;;;;;;1.5;1.4;;;;;;;26.87;66.40137;95328.14;;;;
2024/02/21 14:09:08;;;;;;;1.5;1.4;;;;;;;26.87;66.40137;95328.14;;;;
2024/02/21 14:10:09;;;;;;;1.5;1.4;;;;;;;26.87;66.40137;95328.14;;;;
2024/02/21 14:11:09;;;;;;;1.5;1.4;;;;;;;26.87;66.40137;95328.14;;;;
2024/02/21 14:12:10;;;;;;;1.5;1.4;;;;;;;26.87;66.40137;95328.14;;;;
2024/02/21 14:13:11;;;;;;;1.5;1.4;;;;;;;26.87;66.40137;95328.14;;;;
2024/02/21 14:14:12;;;;;;;1.5;1.4;;;;;;;26.87;66.40137;95328.14;;;;
2024/02/21 14:15:12;;;;;;;1.5;1.4;;;;;;;26.87;66.40137;95328.14;;;;
2024/02/21 14:16:13;;;;;;;1.5;1.4;;;;;;;26.87;66.40137;95328.14;;;;
2024/02/21 14:17:13;;;;;;;1.5;1.4;;;;;;;26.87;66.40137;95328.14;;;;
2024/02/21 14:18:16;;;;;;;1.5;1.4;;;;;;;26.87;66.40137;95328.14;;;;
2024/02/21 14:19:17;;;;;;;1.5;1.4;;;;;;;26.87;66.40137;95328.14;;;;
2024/02/21 14:20:18;;;;;;;1.5;1.4;;;;;;;26.87;66.40137;95328.14;;;;
2024/02/21 14:21:19;;;;;;;1.5;1.4;;;;;;;26.87;66.40137;95328.14;;;;
2024/02/21 14:22:19;;;;;;;1.5;1.4;;;;;;;26.87;66.40137;95328.14;;;;
2024/02/21 14:23:21;;;;;;;1.5;1.4;;;;;;;26.87;66.40137;95328.14;;;;
2024/02/21 14:24:21;;;;;;;1.5;1.4;;;;;;;26.87;66.40137;95328.14;;;;
2024/02/21 14:25:22;;;;;;;1.5;1.4;;;;;;;26.87;66.40137;95328.14;;;;
2024/02/21 14:26:22;;;;;;;1.5;1.4;;;;;;;26.87;66.40137;95328.14;;;;
2024/02/21 14:27:23;;;;;;;1.5;1.4;;;;;;;26.87;66.40137;95328.14;;;;
2024/02/21 14:28:23;;;;;;;1.5;1.4;;;;;;;26.87;66.40137;95328.14;;;;
2024/02/21 14:29:23;;;;;;;1.5;1.4;;;;;;;26.87;66.40137;95328.14;;;;
2024/02/21 14:30:25;;;;;;;1.5;1.4;;;;;;;26.87;66.40137;95328.14;;;;
2024/02/21 14:31:25;;;;;;;1.5;1.4;;;;;;;26.87;66.40137;95328.14;;;;
2024/02/21 14:32:26;;;;;;;1.5;1.4;;;;;;;26.87;66.40137;95328.14;;;;
2024/02/21 14:33:26;;;;;;;1.5;1.4;;;;;;;26.87;66.40137;95328.14;;;;
2024/02/21 14:34:27;;;;;;;1.5;1.4;;;;;;;26.87;66.40137;95328.14;;;;
2024/02/21 14:35:27;;;;;;;1.5;1.4;;;;;;;26.87;66.40137;95328.14;;;;
2024/02/21 14:36:28;;;;;;;1.5;1.4;;;;;;;26.87;66.40137;95328.14;;;;
2024/02/21 14:37:28;;;;;;;1.5;1.4;;;;;;;26.87;66.40137;95328.14;;;;
2024/02/21 14:38:29;;;;;;;1.5;1.4;;;;;;;26.87;66.40137;95328.14;;;;
2024/02/21 14:39:29;;;;;;;1.5;1.4;;;;;;;26.87;66.40137;95328.14;;;;
2024/02/21 14:40:30;;;;;;;1.5;1.4;;;;;;;26.87;66.40137;95328.14;;;;
2024/02/21 14:41:30;;;;;;;1.5;1.4;;;;;;;26.87;66.40137;95328.14;;;;
2024/02/21 14:42:31;;;;;;;1.5;1.4;;;;;;;26.87;66.40137;95328.14;;;;
2024/02/21 14:43:31;;;;;;;1.5;1.4;;;;;;;26.87;66.40137;95328.14;;;;
2024/02/21 15:47:35;;;;;;;1.5;1.2;;;;;;;17.4;79.03613;95239.84;;;;
2024/02/21 15:48:35;;;;;;;1.5;1.2;;;;;;;17.4;79.03613;95239.84;;;;
2024/02/21 15:49:36;;;;;;;1.5;1.2;;;;;;;17.4;79.03613;95239.84;;;;
2024/02/21 15:50:37;;;;;;;1.5;1.2;;;;;;;17.4;79.03613;95239.84;;;;
2024/02/21 15:51:40;;;;;;;1.5;1.2;;;;;;;17.4;79.03613;95239.84;;;;
2024/02/21 15:52:40;;;;;;;1.5;1.2;;;;;;;17.4;79.03613;95239.84;;;;
2024/02/21 15:53:44;;;;;;;1.5;1.2;;;;;;;17.4;79.03613;95239.84;;;;
2024/02/21 15:54:45;;;;;;;1.5;1.2;;;;;;;17.4;79.03613;95239.84;;;;
2024/02/21 15:55:46;;;;;;;1.5;1.2;;;;;;;17.4;79.03613;95239.84;;;;